sensor_id;sensor_type;location;lat;lon;timestamp;temperature;humidity
46898;DHT22;32646;50.958;6.258;2022-08-05T00:01:26;19.90;99.90
46898;DHT22;32646;50.958;6.258;2022-08-05T00:03:54;19.70;99.90
46898;DHT22;32646;50.958;6.258;2022-08-05T00:06:23;19.70;99.90
46898;DHT22;32646;50.958;6.258;2022-08-05T00:08:59;19.60;99.90
46898;DHT22;32646;50.958;6.258;2022-08-05T00:11:27;19.60;99.90
46898;DHT22;32646;50.958;6.258;2022-08-05T00:14:01;19.50;99.90
46898;DHT22;32646;50.958;6.258;2022-08-05T00:16:38;19.50;99.90
46898;DHT22;32646;50.958;6.258;2022-08-05T00:19:21;19.40;99.90
46898;DHT22;32646;50.958;6.258;2022-08-05T00:21:50;19.40;99.90
46898;DHT22;32646;50.958;6.258;2022-08-05T00:24:19;19.40;99.90
46898;DHT22;32646;50.958;6.258;2022-08-05T00:26:56;19.50;99.90
46898;DHT22;32646;50.958;6.258;2022-08-05T00:29:24;19.50;99.90
46898;DHT22;32646;50.958;6.258;2022-08-05T00:32:03;19.50;99.90
46898;DHT22;32646;50.958;6.258;2022-08-05T00:34:42;19.60;99.90
46898;DHT22;32646;50.958;6.258;2022-08-05T00:37:28;19.50;99.90
46898;DHT22;32646;50.958;6.258;2022-08-05T00:40:16;19.40;99.90
46898;DHT22;32646;50.958;6.258;2022-08-05T00:42:52;19.30;99.90
46898;DHT22;32646;50.958;6.258;2022-08-05T00:45:18;19.10;99.90
46898;DHT22;32646;50.958;6.258;2022-08-05T00:48:07;19.10;99.90
46898;DHT22;32646;50.958;6.258;2022-08-05T00:50:36;19.10;99.90
46898;DHT22;32646;50.958;6.258;2022-08-05T00:53:02;19.00;99.90
46898;DHT22;32646;50.958;6.258;2022-08-05T00:55:49;18.90;99.90
46898;DHT22;32646;50.958;6.258;2022-08-05T00:58:17;18.80;99.90
46898;DHT22;32646;50.958;6.258;2022-08-05T01:00:45;18.70;99.90
46898;DHT22;32646;50.958;6.258;2022-08-05T01:03:12;18.60;99.90
46898;DHT22;32646;50.958;6.258;2022-08-05T01:05:49;18.60;99.90
46898;DHT22;32646;50.958;6.258;2022-08-05T01:08:17;18.70;99.90
46898;DHT22;32646;50.958;6.258;2022-08-05T01:11:15;18.70;99.90
46898;DHT22;32646;50.958;6.258;2022-08-05T01:14:46;18.70;99.90
46898;DHT22;32646;50.958;6.258;2022-08-05T01:17:10;18.70;99.90
46898;DHT22;32646;50.958;6.258;2022-08-05T01:25:04;18.70;99.90
46898;DHT22;32646;50.958;6.258;2022-08-05T01:30:52;18.80;99.90
46898;DHT22;32646;50.958;6.258;2022-08-05T01:33:31;18.80;99.90
46898;DHT22;32646;50.958;6.258;2022-08-05T01:36:07;18.90;99.90
46898;DHT22;32646;50.958;6.258;2022-08-05T01:38:43;18.90;99.90
46898;DHT22;32646;50.958;6.258;2022-08-05T01:41:12;19.00;99.90
46898;DHT22;32646;50.958;6.258;2022-08-05T01:43:40;18.60;99.90
46898;DHT22;32646;50.958;6.258;2022-08-05T01:46:08;18.50;99.90
46898;DHT22;32646;50.958;6.258;2022-08-05T01:48:43;18.40;99.90
46898;DHT22;32646;50.958;6.258;2022-08-05T01:51:16;18.30;99.90
46898;DHT22;32646;50.958;6.258;2022-08-05T01:53:45;18.20;99.90
46898;DHT22;32646;50.958;6.258;2022-08-05T01:56:29;18.20;99.90
46898;DHT22;32646;50.958;6.258;2022-08-05T01:59:20;18.10;99.90
46898;DHT22;32646;50.958;6.258;2022-08-05T02:01:53;18.10;99.90
46898;DHT22;32646;50.958;6.258;2022-08-05T02:04:26;18.10;99.90
46898;DHT22;32646;50.958;6.258;2022-08-05T02:06:56;18.10;99.90
46898;DHT22;32646;50.958;6.258;2022-08-05T02:09:23;18.10;99.90
46898;DHT22;32646;50.958;6.258;2022-08-05T02:12:05;18.10;99.90
46898;DHT22;32646;50.958;6.258;2022-08-05T02:14:45;18.00;99.90
46898;DHT22;32646;50.958;6.258;2022-08-05T02:17:28;17.90;99.90
46898;DHT22;32646;50.958;6.258;2022-08-05T02:20:18;17.70;99.90
46898;DHT22;32646;50.958;6.258;2022-08-05T02:22:57;17.70;99.90
46898;DHT22;32646;50.958;6.258;2022-08-05T02:25:28;17.80;99.90
46898;DHT22;32646;50.958;6.258;2022-08-05T02:27:59;17.80;99.90
46898;DHT22;32646;50.958;6.258;2022-08-05T02:30:34;17.80;99.90
46898;DHT22;32646;50.958;6.258;2022-08-05T02:33:19;17.80;99.90
46898;DHT22;32646;50.958;6.258;2022-08-05T02:36:02;17.90;99.90
46898;DHT22;32646;50.958;6.258;2022-08-05T02:38:31;17.90;99.90
46898;DHT22;32646;50.958;6.258;2022-08-05T02:41:01;17.80;99.90
46898;DHT22;32646;50.958;6.258;2022-08-05T02:43:40;17.80;99.90
46898;DHT22;32646;50.958;6.258;2022-08-05T02:46:28;17.80;99.90
46898;DHT22;32646;50.958;6.258;2022-08-05T02:48:56;17.80;99.90
46898;DHT22;32646;50.958;6.258;2022-08-05T02:51:23;17.80;99.90
46898;DHT22;32646;50.958;6.258;2022-08-05T02:54:11;17.70;99.90
46898;DHT22;32646;50.958;6.258;2022-08-05T02:56:59;17.60;99.90
46898;DHT22;32646;50.958;6.258;2022-08-05T02:59:27;17.60;99.90
46898;DHT22;32646;50.958;6.258;2022-08-05T03:02:16;17.60;99.90
46898;DHT22;32646;50.958;6.258;2022-08-05T03:04:45;17.60;99.90
46898;DHT22;32646;50.958;6.258;2022-08-05T03:07:18;17.60;99.90
46898;DHT22;32646;50.958;6.258;2022-08-05T03:10:07;17.60;99.90
46898;DHT22;32646;50.958;6.258;2022-08-05T03:12:36;17.60;99.90
46898;DHT22;32646;50.958;6.258;2022-08-05T03:15:05;17.60;99.90
46898;DHT22;32646;50.958;6.258;2022-08-05T03:17:35;17.70;99.90
46898;DHT22;32646;50.958;6.258;2022-08-05T03:20:08;17.80;99.90
46898;DHT22;32646;50.958;6.258;2022-08-05T03:22:36;17.80;99.90
46898;DHT22;32646;50.958;6.258;2022-08-05T03:25:10;17.80;99.90
46898;DHT22;32646;50.958;6.258;2022-08-05T03:27:57;17.80;99.90
46898;DHT22;32646;50.958;6.258;2022-08-05T03:30:27;17.80;99.90
46898;DHT22;32646;50.958;6.258;2022-08-05T03:33:03;17.90;99.90
46898;DHT22;32646;50.958;6.258;2022-08-05T03:35:31;17.90;99.90
46898;DHT22;32646;50.958;6.258;2022-08-05T03:38:06;17.90;99.90
46898;DHT22;32646;50.958;6.258;2022-08-05T03:40:33;17.90;99.90
46898;DHT22;32646;50.958;6.258;2022-08-05T03:43:01;17.90;99.90
46898;DHT22;32646;50.958;6.258;2022-08-05T03:45:47;17.90;99.90
46898;DHT22;32646;50.958;6.258;2022-08-05T03:48:26;17.90;99.90
46898;DHT22;32646;50.958;6.258;2022-08-05T03:51:12;17.90;99.90
46898;DHT22;32646;50.958;6.258;2022-08-05T03:54:27;17.90;99.90
46898;DHT22;32646;50.958;6.258;2022-08-05T03:57:23;17.90;99.90
46898;DHT22;32646;50.958;6.258;2022-08-05T04:00:12;17.90;99.90
46898;DHT22;32646;50.958;6.258;2022-08-05T04:02:44;17.90;99.90
46898;DHT22;32646;50.958;6.258;2022-08-05T04:05:29;17.80;99.90
46898;DHT22;32646;50.958;6.258;2022-08-05T04:08:01;17.80;99.90
46898;DHT22;32646;50.958;6.258;2022-08-05T04:10:31;17.80;99.90
46898;DHT22;32646;50.958;6.258;2022-08-05T04:13:04;17.80;99.90
46898;DHT22;32646;50.958;6.258;2022-08-05T04:15:31;17.90;99.90
46898;DHT22;32646;50.958;6.258;2022-08-05T04:18:04;17.90;99.90
46898;DHT22;32646;50.958;6.258;2022-08-05T04:20:35;17.90;99.90
46898;DHT22;32646;50.958;6.258;2022-08-05T04:23:01;17.90;99.90
46898;DHT22;32646;50.958;6.258;2022-08-05T04:25:29;17.90;99.90
46898;DHT22;32646;50.958;6.258;2022-08-05T04:28:15;17.80;99.90
46898;DHT22;32646;50.958;6.258;2022-08-05T04:30:43;17.90;99.90
46898;DHT22;32646;50.958;6.258;2022-08-05T04:33:10;17.80;99.90
46898;DHT22;32646;50.958;6.258;2022-08-05T04:35:37;17.80;99.90
46898;DHT22;32646;50.958;6.258;2022-08-05T04:38:24;17.80;99.90
46898;DHT22;32646;50.958;6.258;2022-08-05T04:41:05;17.90;99.90
46898;DHT22;32646;50.958;6.258;2022-08-05T04:43:33;17.90;99.90
46898;DHT22;32646;50.958;6.258;2022-08-05T04:46:00;17.90;99.90
46898;DHT22;32646;50.958;6.258;2022-08-05T04:48:26;18.00;99.90
46898;DHT22;32646;50.958;6.258;2022-08-05T04:50:54;18.00;99.90
46898;DHT22;32646;50.958;6.258;2022-08-05T04:53:37;18.10;99.90
46898;DHT22;32646;50.958;6.258;2022-08-05T04:56:06;18.10;99.90
46898;DHT22;32646;50.958;6.258;2022-08-05T04:58:52;18.00;99.90
46898;DHT22;32646;50.958;6.258;2022-08-05T05:01:19;18.00;99.90
46898;DHT22;32646;50.958;6.258;2022-08-05T05:04:06;18.00;99.90
46898;DHT22;32646;50.958;6.258;2022-08-05T05:06:32;18.00;99.90
46898;DHT22;32646;50.958;6.258;2022-08-05T05:09:06;18.00;99.90
46898;DHT22;32646;50.958;6.258;2022-08-05T05:11:33;18.00;99.90
46898;DHT22;32646;50.958;6.258;2022-08-05T05:14:18;18.10;99.90
46898;DHT22;32646;50.958;6.258;2022-08-05T05:16:59;18.10;99.90
46898;DHT22;32646;50.958;6.258;2022-08-05T05:19:26;18.10;99.90
46898;DHT22;32646;50.958;6.258;2022-08-05T05:22:02;18.10;99.90
46898;DHT22;32646;50.958;6.258;2022-08-05T05:24:48;18.20;99.90
46898;DHT22;32646;50.958;6.258;2022-08-05T05:27:29;18.10;99.90
46898;DHT22;32646;50.958;6.258;2022-08-05T05:30:13;18.10;99.90
46898;DHT22;32646;50.958;6.258;2022-08-05T05:32:56;18.10;99.90
46898;DHT22;32646;50.958;6.258;2022-08-05T05:35:29;18.10;99.90
46898;DHT22;32646;50.958;6.258;2022-08-05T05:38:03;18.20;99.90
46898;DHT22;32646;50.958;6.258;2022-08-05T05:40:31;18.10;99.90
46898;DHT22;32646;50.958;6.258;2022-08-05T05:42:59;18.20;99.90
46898;DHT22;32646;50.958;6.258;2022-08-05T05:45:27;18.20;99.90
46898;DHT22;32646;50.958;6.258;2022-08-05T05:47:57;18.20;99.90
46898;DHT22;32646;50.958;6.258;2022-08-05T05:50:34;18.20;99.90
46898;DHT22;32646;50.958;6.258;2022-08-05T05:53:10;18.20;99.90
46898;DHT22;32646;50.958;6.258;2022-08-05T05:55:48;18.20;99.90
46898;DHT22;32646;50.958;6.258;2022-08-05T05:58:26;18.10;99.90
46898;DHT22;32646;50.958;6.258;2022-08-05T06:00:58;18.20;99.90
46898;DHT22;32646;50.958;6.258;2022-08-05T06:03:38;18.10;99.90
46898;DHT22;32646;50.958;6.258;2022-08-05T06:06:24;18.20;99.90
46898;DHT22;32646;50.958;6.258;2022-08-05T06:08:56;18.10;99.90
46898;DHT22;32646;50.958;6.258;2022-08-05T06:11:22;18.10;99.90
46898;DHT22;32646;50.958;6.258;2022-08-05T06:13:49;18.20;99.90
46898;DHT22;32646;50.958;6.258;2022-08-05T06:16:21;18.20;99.90
46898;DHT22;32646;50.958;6.258;2022-08-05T06:18:56;18.10;99.90
46898;DHT22;32646;50.958;6.258;2022-08-05T06:21:26;18.20;99.90
46898;DHT22;32646;50.958;6.258;2022-08-05T06:24:06;18.20;99.90
46898;DHT22;32646;50.958;6.258;2022-08-05T06:26:41;18.10;99.90
46898;DHT22;32646;50.958;6.258;2022-08-05T06:29:18;18.20;99.90
46898;DHT22;32646;50.958;6.258;2022-08-05T06:32:05;18.20;99.90
46898;DHT22;32646;50.958;6.258;2022-08-05T06:34:53;18.20;99.90
46898;DHT22;32646;50.958;6.258;2022-08-05T06:37:25;18.20;99.90
46898;DHT22;32646;50.958;6.258;2022-08-05T06:40:13;18.10;99.90
46898;DHT22;32646;50.958;6.258;2022-08-05T06:42:50;18.00;99.90
46898;DHT22;32646;50.958;6.258;2022-08-05T06:45:19;18.00;99.90
46898;DHT22;32646;50.958;6.258;2022-08-05T06:47:47;17.90;99.90
46898;DHT22;32646;50.958;6.258;2022-08-05T06:50:33;17.90;99.90
46898;DHT22;32646;50.958;6.258;2022-08-05T06:53:00;17.80;99.90
46898;DHT22;32646;50.958;6.258;2022-08-05T06:55:44;17.70;99.90
46898;DHT22;32646;50.958;6.258;2022-08-05T06:58:11;17.80;99.90
46898;DHT22;32646;50.958;6.258;2022-08-05T07:00:59;17.70;99.90
46898;DHT22;32646;50.958;6.258;2022-08-05T07:03:27;17.70;99.90
46898;DHT22;32646;50.958;6.258;2022-08-05T07:05:59;17.70;99.90
46898;DHT22;32646;50.958;6.258;2022-08-05T07:08:31;17.70;99.90
46898;DHT22;32646;50.958;6.258;2022-08-05T07:10:57;17.70;99.90
46898;DHT22;32646;50.958;6.258;2022-08-05T07:13:24;17.70;99.90
46898;DHT22;32646;50.958;6.258;2022-08-05T07:16:10;17.60;99.90
46898;DHT22;32646;50.958;6.258;2022-08-05T07:18:57;17.50;99.90
46898;DHT22;32646;50.958;6.258;2022-08-05T07:21:24;17.60;99.90
46898;DHT22;32646;50.958;6.258;2022-08-05T07:23:51;17.40;99.90
46898;DHT22;32646;50.958;6.258;2022-08-05T07:26:18;17.40;99.90
46898;DHT22;32646;50.958;6.258;2022-08-05T07:28:50;17.40;99.90
46898;DHT22;32646;50.958;6.258;2022-08-05T07:31:17;17.40;99.90
46898;DHT22;32646;50.958;6.258;2022-08-05T07:34:05;17.40;99.90
46898;DHT22;32646;50.958;6.258;2022-08-05T07:36:33;17.30;99.90
46898;DHT22;32646;50.958;6.258;2022-08-05T07:39:02;17.30;99.90
46898;DHT22;32646;50.958;6.258;2022-08-05T07:41:31;17.30;99.90
46898;DHT22;32646;50.958;6.258;2022-08-05T07:44:17;17.40;99.90
46898;DHT22;32646;50.958;6.258;2022-08-05T07:46:46;17.40;99.90
46898;DHT22;32646;50.958;6.258;2022-08-05T07:49:16;17.40;99.90
46898;DHT22;32646;50.958;6.258;2022-08-05T07:51:44;17.40;99.90
46898;DHT22;32646;50.958;6.258;2022-08-05T07:54:20;17.30;99.90
46898;DHT22;32646;50.958;6.258;2022-08-05T07:56:48;17.30;99.90
46898;DHT22;32646;50.958;6.258;2022-08-05T07:59:35;17.20;99.90
46898;DHT22;32646;50.958;6.258;2022-08-05T08:02:10;17.00;99.90
46898;DHT22;32646;50.958;6.258;2022-08-05T08:04:45;17.00;99.90
46898;DHT22;32646;50.958;6.258;2022-08-05T08:07:12;16.90;99.90
46898;DHT22;32646;50.958;6.258;2022-08-05T08:09:41;17.00;99.90
46898;DHT22;32646;50.958;6.258;2022-08-05T08:12:08;17.00;99.90
46898;DHT22;32646;50.958;6.258;2022-08-05T08:14:54;17.00;99.90
46898;DHT22;32646;50.958;6.258;2022-08-05T08:17:22;17.00;99.90
46898;DHT22;32646;50.958;6.258;2022-08-05T08:19:49;17.00;99.90
46898;DHT22;32646;50.958;6.258;2022-08-05T08:22:35;17.10;99.90
46898;DHT22;32646;50.958;6.258;2022-08-05T08:25:02;17.20;99.90
46898;DHT22;32646;50.958;6.258;2022-08-05T08:27:42;17.10;99.90
46898;DHT22;32646;50.958;6.258;2022-08-05T08:30:14;17.10;99.90
46898;DHT22;32646;50.958;6.258;2022-08-05T08:32:59;17.00;99.90
46898;DHT22;32646;50.958;6.258;2022-08-05T08:35:30;17.00;99.90
46898;DHT22;32646;50.958;6.258;2022-08-05T08:38:00;16.90;99.90
46898;DHT22;32646;50.958;6.258;2022-08-05T08:40:27;17.00;99.90
46898;DHT22;32646;50.958;6.258;2022-08-05T08:42:54;16.90;99.90
46898;DHT22;32646;50.958;6.258;2022-08-05T08:45:22;16.90;99.90
46898;DHT22;32646;50.958;6.258;2022-08-05T08:47:55;16.90;99.90
46898;DHT22;32646;50.958;6.258;2022-08-05T08:50:43;16.90;99.90
46898;DHT22;32646;50.958;6.258;2022-08-05T08:53:35;16.90;99.90
46898;DHT22;32646;50.958;6.258;2022-08-05T08:56:03;16.90;99.90
46898;DHT22;32646;50.958;6.258;2022-08-05T08:58:32;17.00;99.90
46898;DHT22;32646;50.958;6.258;2022-08-05T09:01:10;17.10;99.90
46898;DHT22;32646;50.958;6.258;2022-08-05T09:03:53;17.10;99.90
46898;DHT22;32646;50.958;6.258;2022-08-05T09:06:28;17.20;99.90
46898;DHT22;32646;50.958;6.258;2022-08-05T09:09:00;17.30;99.90
46898;DHT22;32646;50.958;6.258;2022-08-05T09:11:27;17.20;99.90
46898;DHT22;32646;50.958;6.258;2022-08-05T09:14:14;17.30;99.90
46898;DHT22;32646;50.958;6.258;2022-08-05T09:17:03;17.40;99.90
46898;DHT22;32646;50.958;6.258;2022-08-05T09:19:35;17.40;99.90
46898;DHT22;32646;50.958;6.258;2022-08-05T09:22:23;17.50;99.90
46898;DHT22;32646;50.958;6.258;2022-08-05T09:24:59;17.60;99.90
46898;DHT22;32646;50.958;6.258;2022-08-05T09:27:34;17.50;99.90
46898;DHT22;32646;50.958;6.258;2022-08-05T09:30:21;17.70;99.90
46898;DHT22;32646;50.958;6.258;2022-08-05T09:32:49;17.80;99.90
46898;DHT22;32646;50.958;6.258;2022-08-05T09:35:18;17.90;99.90
46898;DHT22;32646;50.958;6.258;2022-08-05T09:37:54;18.00;99.90
46898;DHT22;32646;50.958;6.258;2022-08-05T09:40:41;18.10;99.90
46898;DHT22;32646;50.958;6.258;2022-08-05T09:43:29;18.30;99.90
46898;DHT22;32646;50.958;6.258;2022-08-05T09:46:23;18.50;99.90
46898;DHT22;32646;50.958;6.258;2022-08-05T09:48:54;18.80;99.90
46898;DHT22;32646;50.958;6.258;2022-08-05T09:51:41;19.00;99.90
46898;DHT22;32646;50.958;6.258;2022-08-05T09:54:08;19.10;99.90
46898;DHT22;32646;50.958;6.258;2022-08-05T09:56:37;19.20;99.90
46898;DHT22;32646;50.958;6.258;2022-08-05T09:59:10;19.20;99.90
46898;DHT22;32646;50.958;6.258;2022-08-05T10:01:43;19.50;99.90
46898;DHT22;32646;50.958;6.258;2022-08-05T10:04:13;19.90;99.90
46898;DHT22;32646;50.958;6.258;2022-08-05T10:06:53;20.30;99.90
46898;DHT22;32646;50.958;6.258;2022-08-05T10:09:27;20.50;99.90
46898;DHT22;32646;50.958;6.258;2022-08-05T10:12:09;20.60;99.90
46898;DHT22;32646;50.958;6.258;2022-08-05T10:15:14;20.70;99.90
46898;DHT22;32646;50.958;6.258;2022-08-05T10:17:43;20.70;99.90
46898;DHT22;32646;50.958;6.258;2022-08-05T10:20:24;21.00;99.90
46898;DHT22;32646;50.958;6.258;2022-08-05T10:22:51;21.20;99.90
46898;DHT22;32646;50.958;6.258;2022-08-05T10:25:18;21.30;99.90
46898;DHT22;32646;50.958;6.258;2022-08-05T10:27:46;21.30;99.90
46898;DHT22;32646;50.958;6.258;2022-08-05T10:30:34;21.40;99.90
46898;DHT22;32646;50.958;6.258;2022-08-05T10:33:23;21.50;99.90
46898;DHT22;32646;50.958;6.258;2022-08-05T10:35:56;21.60;99.90
46898;DHT22;32646;50.958;6.258;2022-08-05T10:38:27;21.60;99.90
46898;DHT22;32646;50.958;6.258;2022-08-05T10:41:08;21.80;99.90
46898;DHT22;32646;50.958;6.258;2022-08-05T10:44:05;22.20;99.90
46898;DHT22;32646;50.958;6.258;2022-08-05T10:46:43;23.70;99.90
46898;DHT22;32646;50.958;6.258;2022-08-05T10:49:10;24.40;98.30
46898;DHT22;32646;50.958;6.258;2022-08-05T10:51:52;24.20;99.90
46898;DHT22;32646;50.958;6.258;2022-08-05T10:55:01;24.40;98.60
46898;DHT22;32646;50.958;6.258;2022-08-05T10:57:29;24.00;99.70
46898;DHT22;32646;50.958;6.258;2022-08-05T11:00:11;24.10;99.90
46898;DHT22;32646;50.958;6.258;2022-08-05T11:06:08;24.80;98.00
46898;DHT22;32646;50.958;6.258;2022-08-05T11:11:42;24.70;97.70
46898;DHT22;32646;50.958;6.258;2022-08-05T11:14:23;25.00;98.30
46898;DHT22;32646;50.958;6.258;2022-08-05T11:23:00;25.50;94.80
46898;DHT22;32646;50.958;6.258;2022-08-05T11:33:38;24.70;94.40
46898;DHT22;32646;50.958;6.258;2022-08-05T11:36:14;24.60;95.30
46898;DHT22;32646;50.958;6.258;2022-08-05T11:39:00;25.20;93.70
46898;DHT22;32646;50.958;6.258;2022-08-05T11:41:27;25.70;92.80
46898;DHT22;32646;50.958;6.258;2022-08-05T11:44:14;25.30;93.00
46898;DHT22;32646;50.958;6.258;2022-08-05T11:47:02;25.50;93.00
46898;DHT22;32646;50.958;6.258;2022-08-05T11:49:43;25.60;92.80
46898;DHT22;32646;50.958;6.258;2022-08-05T11:52:27;25.20;92.40
46898;DHT22;32646;50.958;6.258;2022-08-05T11:54:56;24.30;93.80
46898;DHT22;32646;50.958;6.258;2022-08-05T11:57:30;24.00;94.70
46898;DHT22;32646;50.958;6.258;2022-08-05T12:00:27;24.10;96.00
46898;DHT22;32646;50.958;6.258;2022-08-05T12:02:56;23.90;95.60
46898;DHT22;32646;50.958;6.258;2022-08-05T12:05:27;24.60;96.90
46898;DHT22;32646;50.958;6.258;2022-08-05T12:08:05;25.30;93.10
46898;DHT22;32646;50.958;6.258;2022-08-05T12:10:37;24.70;95.00
46898;DHT22;32646;50.958;6.258;2022-08-05T12:13:13;25.00;94.60
46898;DHT22;32646;50.958;6.258;2022-08-05T12:15:45;24.90;93.80
46898;DHT22;32646;50.958;6.258;2022-08-05T12:18:31;25.10;94.60
46898;DHT22;32646;50.958;6.258;2022-08-05T12:21:29;25.30;93.20
46898;DHT22;32646;50.958;6.258;2022-08-05T12:24:05;26.00;92.90
46898;DHT22;32646;50.958;6.258;2022-08-05T12:26:34;25.80;93.30
46898;DHT22;32646;50.958;6.258;2022-08-05T12:29:07;26.40;92.40
46898;DHT22;32646;50.958;6.258;2022-08-05T12:31:53;26.80;91.30
46898;DHT22;32646;50.958;6.258;2022-08-05T12:34:23;27.40;91.80
46898;DHT22;32646;50.958;6.258;2022-08-05T12:36:52;26.80;91.10
46898;DHT22;32646;50.958;6.258;2022-08-05T12:39:20;28.00;90.40
46898;DHT22;32646;50.958;6.258;2022-08-05T12:41:49;28.60;86.80
46898;DHT22;32646;50.958;6.258;2022-08-05T12:44:23;28.00;85.10
46898;DHT22;32646;50.958;6.258;2022-08-05T12:47:00;28.50;86.70
46898;DHT22;32646;50.958;6.258;2022-08-05T12:49:44;28.80;85.80
46898;DHT22;32646;50.958;6.258;2022-08-05T12:52:33;29.10;82.40
46898;DHT22;32646;50.958;6.258;2022-08-05T12:55:22;28.00;85.30
46898;DHT22;32646;50.958;6.258;2022-08-05T12:57:52;28.80;83.80
46898;DHT22;32646;50.958;6.258;2022-08-05T13:00:44;29.10;83.00
46898;DHT22;32646;50.958;6.258;2022-08-05T13:03:33;28.70;82.20
46898;DHT22;32646;50.958;6.258;2022-08-05T13:06:07;28.70;84.90
46898;DHT22;32646;50.958;6.258;2022-08-05T13:08:37;26.90;84.70
46898;DHT22;32646;50.958;6.258;2022-08-05T13:11:03;26.70;87.20
46898;DHT22;32646;50.958;6.258;2022-08-05T13:13:30;26.20;87.80
46898;DHT22;32646;50.958;6.258;2022-08-05T13:16:18;25.30;90.30
46898;DHT22;32646;50.958;6.258;2022-08-05T13:18:52;24.30;92.70
46898;DHT22;32646;50.958;6.258;2022-08-05T13:21:24;23.60;92.20
46898;DHT22;32646;50.958;6.258;2022-08-05T13:24:04;23.00;93.60
46898;DHT22;32646;50.958;6.258;2022-08-05T13:26:34;22.30;95.20
46898;DHT22;32646;50.958;6.258;2022-08-05T13:29:01;21.90;97.30
46898;DHT22;32646;50.958;6.258;2022-08-05T13:31:30;21.50;98.10
46898;DHT22;32646;50.958;6.258;2022-08-05T13:34:17;21.30;98.10
46898;DHT22;32646;50.958;6.258;2022-08-05T13:36:50;21.10;97.60
46898;DHT22;32646;50.958;6.258;2022-08-05T13:39:17;21.30;97.30
46898;DHT22;32646;50.958;6.258;2022-08-05T13:42:04;21.40;97.20
46898;DHT22;32646;50.958;6.258;2022-08-05T13:44:31;21.70;97.10
46898;DHT22;32646;50.958;6.258;2022-08-05T13:47:00;21.90;95.00
46898;DHT22;32646;50.958;6.258;2022-08-05T13:49:34;22.20;94.60
46898;DHT22;32646;50.958;6.258;2022-08-05T13:52:19;22.50;93.70
46898;DHT22;32646;50.958;6.258;2022-08-05T13:54:55;22.60;93.70
46898;DHT22;32646;50.958;6.258;2022-08-05T13:57:24;22.70;92.80
46898;DHT22;32646;50.958;6.258;2022-08-05T14:00:11;22.70;92.50
46898;DHT22;32646;50.958;6.258;2022-08-05T14:02:38;22.60;93.60
46898;DHT22;32646;50.958;6.258;2022-08-05T14:05:05;22.70;93.10
46898;DHT22;32646;50.958;6.258;2022-08-05T14:07:39;22.80;93.70
46898;DHT22;32646;50.958;6.258;2022-08-05T14:10:26;23.20;94.00
46898;DHT22;32646;50.958;6.258;2022-08-05T14:12:56;24.20;93.40
46898;DHT22;32646;50.958;6.258;2022-08-05T14:15:24;25.50;90.70
46898;DHT22;32646;50.958;6.258;2022-08-05T14:18:11;26.00;89.00
46898;DHT22;32646;50.958;6.258;2022-08-05T14:20:43;26.00;88.90
46898;DHT22;32646;50.958;6.258;2022-08-05T14:23:14;26.00;88.40
46898;DHT22;32646;50.958;6.258;2022-08-05T14:25:51;25.80;87.80
46898;DHT22;32646;50.958;6.258;2022-08-05T14:28:20;26.00;89.10
46898;DHT22;32646;50.958;6.258;2022-08-05T14:30:53;26.00;87.70
46898;DHT22;32646;50.958;6.258;2022-08-05T14:33:20;26.20;86.80
46898;DHT22;32646;50.958;6.258;2022-08-05T14:35:49;26.10;88.70
46898;DHT22;32646;50.958;6.258;2022-08-05T14:38:17;26.90;87.00
46898;DHT22;32646;50.958;6.258;2022-08-05T14:41:00;27.40;85.10
46898;DHT22;32646;50.958;6.258;2022-08-05T14:43:32;27.80;82.60
46898;DHT22;32646;50.958;6.258;2022-08-05T14:46:19;27.20;81.30
46898;DHT22;32646;50.958;6.258;2022-08-05T14:48:46;26.40;84.90
46898;DHT22;32646;50.958;6.258;2022-08-05T14:51:16;25.90;86.40
46898;DHT22;32646;50.958;6.258;2022-08-05T14:53:43;25.30;86.70
46898;DHT22;32646;50.958;6.258;2022-08-05T14:56:11;25.00;85.20
46898;DHT22;32646;50.958;6.258;2022-08-05T14:58:38;24.90;84.50
46898;DHT22;32646;50.958;6.258;2022-08-05T15:01:18;24.80;84.90
46898;DHT22;32646;50.958;6.258;2022-08-05T15:04:05;24.70;84.30
46898;DHT22;32646;50.958;6.258;2022-08-05T15:06:32;24.80;84.30
46898;DHT22;32646;50.958;6.258;2022-08-05T15:08:59;24.80;83.60
46898;DHT22;32646;50.958;6.258;2022-08-05T15:11:33;24.90;84.40
46898;DHT22;32646;50.958;6.258;2022-08-05T15:14:19;24.80;83.40
46898;DHT22;32646;50.958;6.258;2022-08-05T15:17:07;24.90;84.30
46898;DHT22;32646;50.958;6.258;2022-08-05T15:19:54;24.60;83.60
46898;DHT22;32646;50.958;6.258;2022-08-05T15:22:20;24.70;81.90
46898;DHT22;32646;50.958;6.258;2022-08-05T15:24:55;25.00;82.60
46898;DHT22;32646;50.958;6.258;2022-08-05T15:27:21;25.30;83.00
46898;DHT22;32646;50.958;6.258;2022-08-05T15:29:52;25.00;82.40
46898;DHT22;32646;50.958;6.258;2022-08-05T15:32:25;24.90;83.00
46898;DHT22;32646;50.958;6.258;2022-08-05T15:34:56;24.90;82.10
46898;DHT22;32646;50.958;6.258;2022-08-05T15:37:24;24.60;81.30
46898;DHT22;32646;50.958;6.258;2022-08-05T15:40:12;24.40;82.80
46898;DHT22;32646;50.958;6.258;2022-08-05T15:42:59;24.30;83.50
46898;DHT22;32646;50.958;6.258;2022-08-05T15:45:43;24.30;82.00
46898;DHT22;32646;50.958;6.258;2022-08-05T15:48:11;24.40;81.90
46898;DHT22;32646;50.958;6.258;2022-08-05T15:50:40;24.60;83.30
46898;DHT22;32646;50.958;6.258;2022-08-05T15:53:09;24.60;83.00
46898;DHT22;32646;50.958;6.258;2022-08-05T15:55:41;24.50;82.00
46898;DHT22;32646;50.958;6.258;2022-08-05T15:58:28;24.10;81.80
46898;DHT22;32646;50.958;6.258;2022-08-05T16:00:55;23.90;82.10
46898;DHT22;32646;50.958;6.258;2022-08-05T16:03:43;23.90;82.60
46898;DHT22;32646;50.958;6.258;2022-08-05T16:06:18;24.00;81.80
46898;DHT22;32646;50.958;6.258;2022-08-05T16:08:47;24.30;84.00
46898;DHT22;32646;50.958;6.258;2022-08-05T16:11:19;24.50;82.70
46898;DHT22;32646;50.958;6.258;2022-08-05T16:14:05;24.60;81.60
46898;DHT22;32646;50.958;6.258;2022-08-05T16:16:31;24.60;81.40
46898;DHT22;32646;50.958;6.258;2022-08-05T16:18:58;24.60;81.20
46898;DHT22;32646;50.958;6.258;2022-08-05T16:21:25;24.30;79.30
46898;DHT22;32646;50.958;6.258;2022-08-05T16:24:12;24.10;80.00
46898;DHT22;32646;50.958;6.258;2022-08-05T16:27:00;23.80;79.80
46898;DHT22;32646;50.958;6.258;2022-08-05T16:29:28;23.60;80.70
46898;DHT22;32646;50.958;6.258;2022-08-05T16:32:05;23.70;83.00
46898;DHT22;32646;50.958;6.258;2022-08-05T16:34:35;24.00;80.60
46898;DHT22;32646;50.958;6.258;2022-08-05T16:37:04;23.90;80.40
46898;DHT22;32646;50.958;6.258;2022-08-05T16:39:51;24.10;80.00
46898;DHT22;32646;50.958;6.258;2022-08-05T16:42:32;24.40;78.50
46898;DHT22;32646;50.958;6.258;2022-08-05T16:44:59;24.50;79.60
46898;DHT22;32646;50.958;6.258;2022-08-05T16:47:27;24.50;77.40
46898;DHT22;32646;50.958;6.258;2022-08-05T16:50:14;24.40;77.60
46898;DHT22;32646;50.958;6.258;2022-08-05T16:52:42;24.40;77.70